Time;durP1;ratioP1;P1;durP2;ratioP2;P2;SDS_P1;SDS_P2;PMS_P1;PMS_P2;Temp;Humidity;BMP_temperature;BMP_pressure;BME280_temperature;BME280_humidity;BME280_pressure;Samples;Min_cycle;Max_cycle;Signal;HPM_P1;HPM_P2
2022/11/17 00:01:09;;;;;;;2.73;1.10;;;10.30;99.90;;;;;;6164639;23;20243;-50
2022/11/17 00:03:35;;;;;;;3.03;1.30;;;10.30;99.90;;;;;;6164784;23;20183;-51
2022/11/17 00:06:05;;;;;;;7.57;1.57;;;10.30;99.90;;;;;;6166965;23;20610;-50
2022/11/17 00:08:31;;;;;;;3.53;1.47;;;10.30;99.90;;;;;;6166147;23;20180;-49
2022/11/17 00:11:00;;;;;;;2.93;1.17;;;10.30;99.90;;;;;;6164283;23;20247;-48
2022/11/17 00:16:12;;;;;;;3.63;0.83;;;10.30;99.90;;;;;;6156548;23;20598;-44
2022/11/17 00:21:25;;;;;;;4.17;0.90;;;10.40;99.90;;;;;;6156157;23;20167;-44
2022/11/17 00:23:52;;;;;;;1.93;0.80;;;10.40;99.90;;;;;;6156416;23;20157;-44
2022/11/17 00:26:20;;;;;;;3.17;1.10;;;10.40;99.90;;;;;;6157276;23;20171;-45
2022/11/17 00:28:46;;;;;;;3.43;0.97;;;10.40;99.90;;;;;;6155928;23;20668;-43
2022/11/17 00:34:04;;;;;;;3.70;1.07;;;10.40;99.90;;;;;;6156343;23;20155;-44
2022/11/17 00:36:51;;;;;;;2.90;1.03;;;10.40;99.90;;;;;;6156435;23;20537;-45
2022/11/17 00:39:18;;;;;;;4.13;1.40;;;10.40;99.90;;;;;;6155750;23;20193;-46
2022/11/17 00:41:44;;;;;;;0.90;0.67;;;10.30;99.90;;;;;;6155981;23;20157;-44
2022/11/17 00:44:10;;;;;;;2.83;1.07;;;10.30;99.90;;;;;;6155994;23;20161;-45
2022/11/17 00:46:37;;;;;;;2.47;0.80;;;10.40;99.90;;;;;;6156375;23;20242;-42
2022/11/17 00:49:04;;;;;;;2.27;0.80;;;10.30;99.90;;;;;;6156190;23;20185;-45
2022/11/17 00:51:29;;;;;;;2.33;1.30;;;10.30;99.90;;;;;;6156184;23;20209;-46
2022/11/17 00:53:55;;;;;;;1.83;1.00;;;10.30;99.90;;;;;;6155869;23;20532;-46
2022/11/17 00:56:22;;;;;;;2.50;1.03;;;10.30;99.90;;;;;;6155843;23;20164;-45
2022/11/17 00:58:47;;;;;;;2.77;1.17;;;10.30;99.90;;;;;;6155698;23;20191;-45
2022/11/17 01:01:13;;;;;;;0.60;0.60;;;10.30;99.90;;;;;;6156244;23;20169;-45
2022/11/17 01:03:39;;;;;;;2.70;1.00;;;10.30;99.90;;;;;;6155551;23;20166;-43
2022/11/17 01:06:10;;;;;;;4.57;0.90;;;10.30;99.90;;;;;;6155755;23;20173;-46
2022/11/17 01:08:36;;;;;;;1.60;0.90;;;10.30;99.90;;;;;;6129646;23;20186;-44
2022/11/17 01:11:11;;;;;;;5.87;0.70;;;10.40;99.90;;;;;;6129737;23;20166;-43
2022/11/17 01:13:38;;;;;;;4.00;1.03;;;10.40;99.90;;;;;;6129690;23;20155;-46
2022/11/17 01:16:10;;;;;;;1.37;0.80;;;10.40;99.90;;;;;;6156037;23;20179;-45
2022/11/17 01:18:37;;;;;;;0.63;0.50;;;10.40;99.90;;;;;;6155579;23;20212;-47
2022/11/17 01:21:11;;;;;;;1.27;0.80;;;10.40;99.90;;;;;;6156059;23;20583;-44
2022/11/17 01:23:38;;;;;;;3.00;0.60;;;10.50;99.90;;;;;;6156014;23;20161;-42
2022/11/17 01:26:07;;;;;;;4.70;0.90;;;10.50;99.90;;;;;;6155739;23;20219;-45
2022/11/17 01:28:33;;;;;;;1.73;0.97;;;10.50;99.90;;;;;;6155632;23;20177;-46
2022/11/17 01:31:01;;;;;;;3.23;0.70;;;10.50;99.90;;;;;;6155701;23;20215;-45
2022/11/17 01:33:27;;;;;;;0.90;0.60;;;10.50;99.90;;;;;;6156116;23;20160;-47
2022/11/17 01:35:53;;;;;;;0.93;0.50;;;10.50;99.90;;;;;;6155967;23;20215;-47
2022/11/17 01:38:18;;;;;;;1.80;0.87;;;10.50;99.90;;;;;;6155579;23;20265;-45
2022/11/17 01:40:44;;;;;;;1.00;0.40;;;10.50;99.90;;;;;;6157488;23;20492;-45
2022/11/17 01:43:10;;;;;;;0.77;0.50;;;10.50;99.90;;;;;;6157619;23;20161;-47
2022/11/17 01:45:36;;;;;;;1.37;0.53;;;10.50;99.90;;;;;;6157417;23;20599;-46
2022/11/17 01:48:06;;;;;;;0.60;0.50;;;10.60;99.90;;;;;;6158094;23;20188;-51
2022/11/17 01:50:38;;;;;;;2.67;0.70;;;10.60;99.90;;;;;;6157348;23;20185;-49
2022/11/17 01:53:09;;;;;;;0.83;0.60;;;10.50;99.90;;;;;;6157371;23;20265;-48
2022/11/17 01:55:45;;;;;;;0.80;0.60;;;10.60;99.90;;;;;;6158032;23;20484;-49
2022/11/17 01:58:15;;;;;;;2.40;0.70;;;10.60;99.90;;;;;;6157275;23;20227;-49
2022/11/17 02:00:41;;;;;;;0.93;0.57;;;10.60;99.90;;;;;;6157293;23;20163;-49
2022/11/17 02:03:07;;;;;;;0.57;0.57;;;10.60;99.90;;;;;;6157117;23;20153;-50
2022/11/17 02:05:52;;;;;;;0.73;0.53;;;10.60;99.90;;;;;;6157422;23;20561;-48
2022/11/17 02:08:23;;;;;;;2.10;0.93;;;10.60;99.90;;;;;;6136286;23;20251;-50
2022/11/17 02:10:50;;;;;;;3.10;0.80;;;10.60;99.90;;;;;;6157553;23;20208;-49
2022/11/17 02:13:15;;;;;;;0.73;0.37;;;10.60;99.90;;;;;;6157142;23;20167;-51
2022/11/17 02:15:41;;;;;;;0.40;0.40;;;10.60;99.90;;;;;;6157445;23;20248;-49
2022/11/17 02:18:07;;;;;;;0.30;0.27;;;10.60;99.90;;;;;;6157339;23;20709;-49
2022/11/17 02:20:56;;;;;;;0.83;0.70;;;10.60;99.90;;;;;;6157437;23;20168;-48
2022/11/17 02:23:49;;;;;;;0.87;0.40;;;10.60;99.90;;;;;;6157158;23;20520;-49
2022/11/17 02:26:49;;;;;;;1.33;0.53;;;10.60;99.90;;;;;;6157182;23;20483;-49
2022/11/17 02:29:29;;;;;;;1.23;0.40;;;10.60;99.90;;;;;;6157998;23;20208;-50
2022/11/17 02:32:13;;;;;;;1.00;0.50;;;10.60;99.90;;;;;;6156982;23;20182;-50
2022/11/17 02:34:46;;;;;;;0.37;0.37;;;10.70;99.90;;;;;;6157311;23;20145;-50
2022/11/17 02:37:18;;;;;;;1.70;0.60;;;10.70;99.90;;;;;;6157043;23;20149;-50
2022/11/17 02:39:57;;;;;;;1.40;0.40;;;10.60;99.90;;;;;;6157230;23;20259;-49
2022/11/17 02:45:37;;;;;;;1.47;0.50;;;10.60;99.90;;;;;;6157292;23;20151;-49
2022/11/17 02:48:10;;;;;;;1.80;0.47;;;10.60;99.90;;;;;;6157549;23;20187;-49
2022/11/17 02:50:37;;;;;;;0.73;0.50;;;10.60;99.90;;;;;;6156756;23;20145;-48
2022/11/17 02:53:03;;;;;;;1.67;0.60;;;10.50;99.90;;;;;;6157602;23;20161;-49
2022/11/17 02:55:32;;;;;;;1.30;0.70;;;10.50;99.90;;;;;;6157139;23;20253;-47
2022/11/17 02:57:57;;;;;;;0.40;0.40;;;10.50;99.90;;;;;;6156660;23;20178;-48
2022/11/17 03:00:23;;;;;;;1.07;0.53;;;10.40;99.90;;;;;;6156822;23;20227;-49
2022/11/17 03:03:05;;;;;;;1.23;0.50;;;10.40;99.90;;;;;;6156839;23;20356;-49
2022/11/17 03:05:34;;;;;;;1.13;0.60;;;10.40;99.90;;;;;;6157335;23;20145;-48
2022/11/17 03:08:19;;;;;;;0.87;0.33;;;10.40;99.90;;;;;;6157075;23;20572;-49
2022/11/17 03:10:50;;;;;;;2.03;0.47;;;10.30;99.90;;;;;;6157509;23;20141;-50
2022/11/17 03:13:28;;;;;;;1.27;0.80;;;10.30;99.90;;;;;;6156790;23;20580;-48
2022/11/17 03:16:06;;;;;;;1.33;0.30;;;10.40;99.90;;;;;;6156809;23;20224;-48
2022/11/17 03:18:48;;;;;;;1.57;0.60;;;10.40;99.90;;;;;;6156895;23;20627;-50
2022/11/17 03:21:21;;;;;;;0.57;0.50;;;10.40;99.90;;;;;;6156636;23;20145;-48
2022/11/17 03:23:56;;;;;;;0.50;0.40;;;10.30;99.90;;;;;;6156585;23;20144;-49
2022/11/17 03:26:28;;;;;;;1.13;0.60;;;10.30;99.90;;;;;;6157021;23;20227;-50
2022/11/17 03:28:56;;;;;;;0.93;0.50;;;10.30;99.90;;;;;;6156724;23;20672;-48
2022/11/17 03:31:24;;;;;;;0.73;0.50;;;10.30;99.90;;;;;;6156908;23;20501;-50
2022/11/17 03:33:51;;;;;;;0.50;0.50;;;10.30;99.90;;;;;;6156815;23;20165;-50
2022/11/17 03:36:22;;;;;;;3.00;0.50;;;10.30;99.90;;;;;;6156564;23;20214;-49
2022/11/17 03:39:02;;;;;;;2.70;0.70;;;10.20;99.90;;;;;;6156789;23;20196;-51
2022/11/17 03:41:30;;;;;;;0.30;0.30;;;10.20;99.90;;;;;;6156890;23;20196;-48
2022/11/17 03:43:58;;;;;;;1.20;0.50;;;10.20;99.90;;;;;;6156769;23;20160;-49
2022/11/17 03:46:25;;;;;;;0.53;0.50;;;10.20;99.90;;;;;;6156789;23;20155;-51
2022/11/17 03:49:04;;;;;;;2.97;0.80;;;10.20;99.90;;;;;;6156439;23;20178;-50
2022/11/17 03:51:32;;;;;;;0.50;0.50;;;10.20;99.90;;;;;;6156496;23;20151;-49
2022/11/17 03:53:58;;;;;;;1.00;0.40;;;10.20;99.90;;;;;;6156587;23;20157;-49
2022/11/17 03:56:33;;;;;;;4.40;0.60;;;10.20;99.90;;;;;;6157050;23;20532;-48
2022/11/17 03:59:13;;;;;;;0.47;0.40;;;10.20;99.90;;;;;;6156761;23;20185;-50
2022/11/17 04:01:38;;;;;;;0.30;0.30;;;10.20;99.90;;;;;;6156999;23;20175;-49
2022/11/17 04:04:04;;;;;;;0.60;0.40;;;10.20;99.90;;;;;;6155956;23;20172;-51
2022/11/17 04:06:30;;;;;;;0.20;0.20;;;10.20;99.90;;;;;;6156527;23;20492;-50
2022/11/17 04:08:55;;;;;;;1.03;0.40;;;10.20;99.90;;;;;;6156661;23;20181;-51
2022/11/17 04:16:49;;;;;;;0.30;0.30;;;10.10;99.90;;;;;;6163287;23;20591;-49
2022/11/17 04:19:15;;;;;;;0.30;0.30;;;10.20;99.90;;;;;;6162776;23;20185;-50
2022/11/17 04:21:40;;;;;;;1.90;0.60;;;10.20;99.90;;;;;;6160808;23;20159;-49
2022/11/17 04:24:06;;;;;;;0.60;0.50;;;10.20;99.90;;;;;;6161663;23;20156;-49
2022/11/17 04:29:16;;;;;;;1.00;0.60;;;10.20;99.90;;;;;;6160496;23;20580;-48
2022/11/17 04:31:42;;;;;;;0.73;0.40;;;10.20;99.90;;;;;;6135621;23;20164;-49
2022/11/17 04:34:07;;;;;;;0.67;0.60;;;10.30;99.90;;;;;;6161739;23;20160;-50
2022/11/17 04:36:42;;;;;;;5.63;0.73;;;10.30;99.90;;;;;;6163469;23;20169;-49
2022/11/17 04:39:07;;;;;;;0.90;0.53;;;10.30;99.90;;;;;;6164900;23;20191;-50
2022/11/17 04:41:52;;;;;;;2.17;0.63;;;10.30;99.90;;;;;;6167320;23;20165;-50
2022/11/17 04:44:20;;;;;;;4.30;0.97;;;10.30;99.90;;;;;;6166633;23;20138;-50
2022/11/17 04:46:45;;;;;;;3.73;0.80;;;10.40;99.90;;;;;;6166238;23;20654;-49
2022/11/17 04:49:12;;;;;;;5.93;0.73;;;10.30;99.90;;;;;;6167423;23;20173;-49
2022/11/17 04:51:38;;;;;;;3.77;1.10;;;10.40;99.90;;;;;;6165081;23;20160;-48
2022/11/17 04:54:05;;;;;;;6.87;1.17;;;10.30;99.90;;;;;;6162361;23;20192;-49
2022/11/17 04:56:31;;;;;;;6.90;1.00;;;10.30;99.90;;;;;;6162519;23;20166;-48
2022/11/17 04:58:57;;;;;;;4.53;0.87;;;10.30;99.90;;;;;;6162694;23;20230;-49
2022/11/17 05:01:24;;;;;;;4.20;0.90;;;10.30;99.90;;;;;;6163668;23;20207;-49
2022/11/17 05:03:55;;;;;;;4.40;1.27;;;10.30;99.90;;;;;;6164087;23;20192;-48
2022/11/17 05:06:24;;;;;;;2.17;0.80;;;10.20;99.90;;;;;;6165115;23;20142;-48
2022/11/17 05:08:54;;;;;;;4.37;0.90;;;10.30;99.90;;;;;;6165625;23;20177;-49
2022/11/17 05:14:05;;;;;;;1.10;0.70;;;10.40;99.90;;;;;;6164844;23;20156;-49
2022/11/17 05:19:21;;;;;;;4.53;1.30;;;10.40;99.90;;;;;;6168659;23;20297;-49
2022/11/17 05:21:46;;;;;;;2.37;1.07;;;10.40;99.90;;;;;;6169420;23;20153;-50
2022/11/17 05:24:13;;;;;;;5.27;0.87;;;10.50;99.90;;;;;;6169423;23;20176;-49
2022/11/17 05:26:40;;;;;;;2.03;1.00;;;10.50;99.90;;;;;;6169552;23;20183;-50
2022/11/17 05:29:07;;;;;;;5.97;1.30;;;10.50;99.90;;;;;;6169485;23;20175;-49
2022/11/17 05:31:33;;;;;;;3.63;1.23;;;10.50;99.90;;;;;;6169451;23;20162;-50
2022/11/17 05:34:00;;;;;;;4.50;1.43;;;10.50;99.90;;;;;;6169338;23;20157;-50
2022/11/17 05:36:26;;;;;;;5.33;1.27;;;10.50;99.90;;;;;;6170993;23;20156;-50
2022/11/17 05:38:53;;;;;;;5.30;1.07;;;10.50;99.90;;;;;;6169949;23;20621;-50
2022/11/17 05:41:19;;;;;;;2.67;0.97;;;10.50;99.90;;;;;;6170130;23;20154;-50
2022/11/17 05:43:45;;;;;;;3.10;1.10;;;10.50;99.90;;;;;;6169643;23;20189;-49
2022/11/17 05:46:12;;;;;;;3.70;1.10;;;10.50;99.90;;;;;;6168544;23;20159;-50
2022/11/17 05:48:38;;;;;;;7.67;1.20;;;10.40;99.90;;;;;;6169382;23;20231;-50
2022/11/17 05:51:04;;;;;;;6.53;1.20;;;10.40;99.90;;;;;;6168165;23;20199;-51
2022/11/17 05:53:30;;;;;;;2.87;1.70;;;10.40;99.90;;;;;;6167660;23;20157;-50
2022/11/17 05:56:23;;;;;;;6.63;1.90;;;10.40;99.90;;;;;;6167586;23;20161;-51
2022/11/17 05:58:53;;;;;;;4.37;1.67;;;10.40;99.90;;;;;;6166367;23;20183;-50
2022/11/17 06:01:20;;;;;;;4.10;1.83;;;10.40;99.90;;;;;;6141143;23;20463;-50
2022/11/17 06:03:50;;;;;;;4.33;1.57;;;10.40;99.90;;;;;;6165747;23;20170;-50
2022/11/17 06:06:16;;;;;;;5.33;1.47;;;10.40;99.90;;;;;;6139394;23;20160;-50
2022/11/17 06:08:42;;;;;;;4.97;1.00;;;10.40;99.90;;;;;;6164618;23;20199;-50
2022/11/17 06:11:07;;;;;;;1.47;0.80;;;10.40;99.90;;;;;;6165227;23;20211;-50
2022/11/17 06:13:33;;;;;;;3.50;0.80;;;10.40;99.90;;;;;;6165068;23;20161;-49
2022/11/17 06:16:02;;;;;;;3.50;0.70;;;10.40;99.90;;;;;;6162989;23;20164;-50
2022/11/17 06:18:34;;;;;;;3.73;0.80;;;10.40;99.90;;;;;;6159835;23;20188;-52
2022/11/17 06:21:00;;;;;;;3.80;0.80;;;10.50;99.90;;;;;;6159858;23;20497;-50
2022/11/17 06:23:30;;;;;;;3.00;0.80;;;10.50;99.90;;;;;;6160010;23;20167;-49
2022/11/17 06:25:58;;;;;;;2.17;0.70;;;10.40;99.90;;;;;;6159358;23;20141;-50
2022/11/17 06:28:26;;;;;;;2.03;0.60;;;10.50;99.90;;;;;;6158809;23;20201;-49
2022/11/17 06:30:52;;;;;;;1.30;0.40;;;10.40;99.90;;;;;;6158479;23;20541;-50
2022/11/17 06:33:18;;;;;;;4.53;0.77;;;10.40;99.90;;;;;;6159683;23;20157;-49
2022/11/17 06:35:45;;;;;;;1.77;0.60;;;10.30;99.90;;;;;;6163565;23;20175;-50
2022/11/17 06:38:10;;;;;;;3.00;0.83;;;10.40;99.90;;;;;;6162569;23;20187;-49
2022/11/17 06:40:36;;;;;;;1.33;0.60;;;10.40;99.90;;;;;;6163385;23;20197;-49
2022/11/17 06:43:08;;;;;;;4.33;0.73;;;10.30;99.90;;;;;;6163296;23;20157;-48
2022/11/17 06:45:37;;;;;;;3.07;0.77;;;10.40;99.90;;;;;;6163634;23;20148;-50
2022/11/17 06:48:03;;;;;;;3.23;0.73;;;10.40;99.90;;;;;;6162720;23;20172;-51
2022/11/17 06:50:29;;;;;;;3.67;0.70;;;10.40;99.90;;;;;;6164379;23;20241;-50
2022/11/17 06:52:59;;;;;;;1.17;0.50;;;10.50;99.90;;;;;;6164786;23;20157;-49
2022/11/17 06:55:25;;;;;;;1.27;0.20;;;10.50;99.90;;;;;;6168113;23;20239;-47
2022/11/17 06:57:50;;;;;;;2.53;0.60;;;10.50;99.90;;;;;;6169234;23;20169;-49
2022/11/17 07:00:17;;;;;;;1.63;0.57;;;10.40;99.90;;;;;;6168619;23;20163;-49
2022/11/17 07:02:42;;;;;;;1.17;0.33;;;10.40;99.90;;;;;;6167214;23;20161;-49
2022/11/17 07:05:08;;;;;;;2.43;0.60;;;10.30;99.90;;;;;;6163879;23;20224;-47
2022/11/17 07:07:34;;;;;;;2.23;0.43;;;10.30;99.90;;;;;;6162685;23;20636;-47
2022/11/17 07:09:59;;;;;;;1.73;0.60;;;10.20;99.90;;;;;;6164344;23;20154;-47
2022/11/17 07:12:25;;;;;;;0.60;0.40;;;10.20;99.90;;;;;;6164819;23;20180;-47
2022/11/17 07:14:51;;;;;;;1.67;0.50;;;10.00;99.90;;;;;;6162570;23;20600;-50
2022/11/17 07:17:16;;;;;;;1.50;0.60;;;10.00;99.90;;;;;;6166954;23;20173;-48
2022/11/17 07:19:42;;;;;;;0.80;0.47;;;10.00;99.90;;;;;;6167385;23;20189;-49
2022/11/17 07:22:07;;;;;;;3.27;0.70;;;10.00;99.90;;;;;;6167741;23;20236;-49
2022/11/17 07:24:33;;;;;;;1.87;0.67;;;10.00;99.90;;;;;;6167220;23;20232;-49
2022/11/17 07:26:59;;;;;;;2.67;0.70;;;9.90;99.90;;;;;;6168119;23;20168;-49
2022/11/17 07:29:24;;;;;;;3.03;0.60;;;9.90;99.90;;;;;;6168653;23;20203;-50
2022/11/17 07:31:50;;;;;;;4.33;0.50;;;9.90;99.90;;;;;;6168102;23;20155;-49
2022/11/17 07:34:16;;;;;;;1.43;0.60;;;10.00;99.90;;;;;;6142185;23;20168;-49
2022/11/17 07:36:41;;;;;;;2.47;0.70;;;10.00;99.90;;;;;;6167835;23;20162;-50
2022/11/17 07:39:07;;;;;;;1.33;0.60;;;10.00;99.90;;;;;;6167351;23;20199;-50
2022/11/17 07:41:32;;;;;;;1.07;0.50;;;10.10;99.90;;;;;;6167020;23;20244;-49
2022/11/17 07:43:58;;;;;;;1.83;0.60;;;10.10;99.90;;;;;;6164998;23;20157;-50
2022/11/17 07:46:24;;;;;;;5.27;0.93;;;10.10;99.90;;;;;;6165096;23;20157;-50
2022/11/17 07:48:53;;;;;;;3.27;0.40;;;10.10;99.90;;;;;;6137890;23;20227;-48
2022/11/17 07:51:19;;;;;;;2.10;0.60;;;10.10;99.90;;;;;;6165232;23;20164;-49
2022/11/17 07:53:45;;;;;;;1.97;0.60;;;10.10;99.90;;;;;;6165705;23;20155;-50
2022/11/17 07:56:11;;;;;;;1.73;0.40;;;10.10;99.90;;;;;;6164467;23;20176;-50
2022/11/17 07:58:38;;;;;;;3.13;0.40;;;10.10;99.90;;;;;;6165542;23;20193;-50
2022/11/17 08:01:15;;;;;;;0.67;0.40;;;10.10;99.90;;;;;;6139078;23;20165;-50
2022/11/17 08:03:42;;;;;;;2.03;0.70;;;10.10;99.90;;;;;;6138430;23;20180;-48
2022/11/17 08:06:11;;;;;;;4.87;1.03;;;10.20;99.90;;;;;;6164277;23;20149;-51
2022/11/17 08:08:36;;;;;;;2.23;0.60;;;10.10;99.90;;;;;;6164026;23;20177;-49
2022/11/17 08:11:08;;;;;;;1.40;0.50;;;10.20;99.90;;;;;;6138267;23;20213;-49
2022/11/17 08:13:34;;;;;;;3.63;0.60;;;10.20;99.90;;;;;;6137099;23;20610;-49
2022/11/17 08:15:59;;;;;;;1.77;0.60;;;10.20;99.90;;;;;;6163496;23;20164;-49
2022/11/17 08:18:26;;;;;;;2.17;0.70;;;10.20;99.90;;;;;;6137087;23;20192;-49
2022/11/17 08:20:58;;;;;;;3.57;0.70;;;10.20;99.90;;;;;;6162126;23;20153;-51
2022/11/17 08:23:24;;;;;;;1.37;0.47;;;10.20;99.90;;;;;;6162085;23;20563;-49
2022/11/17 08:25:49;;;;;;;2.37;0.77;;;10.30;99.90;;;;;;6161943;23;20192;-48
2022/11/17 08:28:15;;;;;;;2.90;0.60;;;10.20;99.90;;;;;;6161276;23;20178;-51
2022/11/17 08:30:43;;;;;;;3.93;1.23;;;10.30;99.90;;;;;;6161469;23;20163;-50
2022/11/17 08:33:09;;;;;;;5.70;0.67;;;10.40;99.90;;;;;;6161338;23;20626;-48
2022/11/17 08:35:34;;;;;;;5.87;0.90;;;10.40;99.90;;;;;;6156935;23;20235;-44
2022/11/17 08:38:00;;;;;;;2.43;0.73;;;10.40;99.90;;;;;;6155969;23;20227;-44
2022/11/17 08:40:26;;;;;;;2.83;0.50;;;10.40;99.90;;;;;;6156457;23;20157;-46
2022/11/17 08:42:55;;;;;;;2.63;0.97;;;10.50;99.90;;;;;;6156734;23;20470;-45
2022/11/17 08:45:21;;;;;;;1.87;0.50;;;10.50;99.90;;;;;;6156582;23;20156;-45
2022/11/17 08:47:46;;;;;;;1.27;0.50;;;10.60;99.90;;;;;;6156053;23;20247;-46
2022/11/17 08:50:12;;;;;;;1.70;0.60;;;10.60;99.90;;;;;;6158708;23;20169;-45
2022/11/17 08:52:38;;;;;;;4.00;0.87;;;10.60;99.90;;;;;;6160061;23;20157;-46
2022/11/17 08:55:06;;;;;;;3.53;0.60;;;10.60;99.90;;;;;;6133392;23;20172;-45
2022/11/17 08:57:32;;;;;;;3.43;0.83;;;10.60;99.90;;;;;;6159661;23;20157;-44
2022/11/17 08:59:58;;;;;;;3.60;0.77;;;10.70;99.90;;;;;;6159516;23;20199;-45
2022/11/17 09:02:25;;;;;;;3.47;0.83;;;10.70;99.90;;;;;;6159299;23;20160;-45
2022/11/17 09:04:50;;;;;;;5.90;0.70;;;10.70;99.90;;;;;;6159128;23;20238;-45
2022/11/17 09:07:16;;;;;;;0.93;0.60;;;10.70;99.90;;;;;;6159180;23;20638;-45
2022/11/17 09:09:42;;;;;;;2.00;0.60;;;10.70;99.90;;;;;;6159210;23;20500;-44
2022/11/17 09:12:08;;;;;;;0.77;0.40;;;10.70;99.90;;;;;;6159088;23;20211;-45
2022/11/17 09:14:33;;;;;;;1.70;0.47;;;10.80;99.90;;;;;;6159085;23;20176;-46
2022/11/17 09:16:59;;;;;;;10.30;0.63;;;10.90;99.90;;;;;;6159398;23;20156;-45
2022/11/17 09:19:25;;;;;;;2.47;0.60;;;10.90;99.90;;;;;;6159397;23;20185;-43
2022/11/17 09:21:50;;;;;;;1.87;0.40;;;11.00;99.90;;;;;;6159144;23;20163;-45
2022/11/17 09:24:16;;;;;;;1.80;0.50;;;11.00;99.90;;;;;;6159173;23;20153;-45
2022/11/17 09:26:41;;;;;;;0.90;0.60;;;11.00;99.90;;;;;;6159925;23;20466;-44
2022/11/17 09:29:07;;;;;;;3.70;0.37;;;11.10;99.90;;;;;;6159266;23;20176;-44
2022/11/17 09:31:34;;;;;;;3.13;0.43;;;11.10;99.90;;;;;;6159069;23;20172;-45
2022/11/17 09:34:00;;;;;;;3.00;0.40;;;11.10;99.90;;;;;;6159426;23;20161;-44
2022/11/17 09:36:25;;;;;;;0.30;0.30;;;11.10;99.90;;;;;;6159317;23;20169;-45
2022/11/17 09:38:51;;;;;;;2.53;0.53;;;11.20;99.90;;;;;;6158931;23;20188;-45
2022/11/17 09:41:27;;;;;;;1.67;0.50;;;11.10;99.90;;;;;;6159330;23;20157;-45
2022/11/17 09:44:10;;;;;;;2.37;0.73;;;11.20;99.90;;;;;;6159274;23;20239;-43
2022/11/17 09:47:06;;;;;;;1.07;0.40;;;11.20;99.90;;;;;;6159465;23;20145;-44
2022/11/17 09:49:56;;;;;;;1.63;0.50;;;11.20;99.90;;;;;;6159269;23;20508;-45
2022/11/17 09:52:27;;;;;;;2.20;0.50;;;11.30;99.90;;;;;;6159058;23;20154;-43
2022/11/17 09:55:08;;;;;;;0.73;0.53;;;11.40;99.90;;;;;;6159053;23;20152;-45
2022/11/17 09:57:46;;;;;;;1.70;0.60;;;11.50;99.90;;;;;;6158986;23;20234;-46
2022/11/17 10:00:21;;;;;;;3.03;0.33;;;11.50;99.90;;;;;;6159282;23;20235;-43
2022/11/17 10:02:49;;;;;;;1.00;0.30;;;11.60;99.90;;;;;;6157387;23;20160;-43
2022/11/17 10:05:23;;;;;;;1.10;0.40;;;11.70;99.90;;;;;;6131079;23;20616;-47
2022/11/17 10:07:52;;;;;;;1.43;0.73;;;11.70;99.90;;;;;;6158497;23;20180;-46
2022/11/17 10:10:23;;;;;;;3.50;0.50;;;11.70;99.90;;;;;;6157391;23;20491;-45
2022/11/17 10:12:55;;;;;;;3.13;0.67;;;11.70;99.90;;;;;;6157499;23;20261;-46
2022/11/17 10:15:39;;;;;;;1.93;0.37;;;11.70;99.90;;;;;;6157659;23;20179;-45
2022/11/17 10:18:12;;;;;;;1.73;0.53;;;11.70;99.90;;;;;;6157358;23;20204;-45
2022/11/17 10:20:38;;;;;;;1.97;0.60;;;11.70;99.90;;;;;;6157611;23;20159;-46
2022/11/17 10:23:04;;;;;;;2.50;0.40;;;11.70;99.90;;;;;;6157444;23;20217;-46
2022/11/17 10:25:38;;;;;;;0.97;0.50;;;11.70;99.90;;;;;;6157093;23;20154;-46
2022/11/17 10:28:07;;;;;;;0.30;0.30;;;11.70;99.90;;;;;;6157158;23;20619;-45
2022/11/17 10:30:33;;;;;;;1.20;0.40;;;11.70;99.90;;;;;;6157200;23;20150;-45
2022/11/17 10:33:00;;;;;;;1.40;0.40;;;11.70;99.90;;;;;;6157539;23;20157;-45
2022/11/17 10:35:34;;;;;;;1.40;0.40;;;11.70;99.90;;;;;;6157820;23;20149;-44
2022/11/17 10:38:15;;;;;;;0.20;0.20;;;11.70;99.90;;;;;;6158905;23;20224;-44
2022/11/17 10:40:41;;;;;;;2.63;0.70;;;11.80;99.90;;;;;;6157085;23;20213;-45
2022/11/17 10:43:12;;;;;;;1.43;0.50;;;11.70;99.90;;;;;;6156993;23;20514;-44
2022/11/17 10:45:45;;;;;;;1.40;0.53;;;11.80;99.90;;;;;;6157784;23;20156;-47
2022/11/17 10:48:34;;;;;;;2.23;0.60;;;11.80;99.90;;;;;;6157051;23;20177;-45
2022/11/17 10:51:22;;;;;;;2.07;0.73;;;11.80;99.90;;;;;;6157186;23;20161;-45
2022/11/17 10:54:05;;;;;;;2.00;0.53;;;11.90;99.90;;;;;;6157145;23;20187;-44
2022/11/17 10:56:43;;;;;;;1.03;0.50;;;11.90;99.90;;;;;;6157082;23;20157;-44
2022/11/17 10:59:17;;;;;;;2.83;0.50;;;11.90;99.90;;;;;;6157076;23;20522;-46
2022/11/17 11:01:46;;;;;;;3.90;0.70;;;12.00;99.90;;;;;;6157124;23;20167;-44
2022/11/17 11:04:38;;;;;;;1.23;0.40;;;12.10;99.90;;;;;;6156880;23;20252;-44
2022/11/17 11:07:08;;;;;;;5.23;0.90;;;12.10;99.90;;;;;;6157020;23;20172;-46
2022/11/17 11:09:57;;;;;;;1.43;0.40;;;12.10;99.90;;;;;;6156939;23;20260;-45
2022/11/17 11:12:40;;;;;;;2.00;0.60;;;12.20;99.90;;;;;;6135983;23;20166;-44
2022/11/17 11:15:17;;;;;;;1.37;0.67;;;12.30;99.90;;;;;;6157291;23;20506;-45
2022/11/17 11:17:43;;;;;;;0.93;0.40;;;12.40;99.90;;;;;;6156968;23;20185;-46
2022/11/17 11:20:14;;;;;;;0.30;0.30;;;12.50;99.90;;;;;;6156830;23;20196;-45
2022/11/17 11:22:58;;;;;;;2.00;0.47;;;12.50;99.90;;;;;;6157316;23;20193;-45
2022/11/17 11:25:30;;;;;;;5.60;1.47;;;12.40;99.90;;;;;;6157173;23;20156;-50
2022/11/17 11:28:08;;;;;;;1.40;0.50;;;12.40;99.90;;;;;;6158599;23;20194;-49
2022/11/17 11:30:53;;;;;;;3.47;0.77;;;12.40;99.90;;;;;;6157579;23;20511;-49
2022/11/17 11:33:40;;;;;;;0.53;0.40;;;12.50;99.90;;;;;;6156967;23;20196;-50
2022/11/17 11:36:27;;;;;;;1.77;0.60;;;12.40;99.90;;;;;;6156938;23;20152;-48
2022/11/17 11:39:11;;;;;;;2.07;0.70;;;12.50;99.90;;;;;;6156753;23;20200;-47
2022/11/17 11:42:08;;;;;;;1.47;0.40;;;12.40;99.90;;;;;;6156598;23;20165;-48
2022/11/17 11:44:52;;;;;;;1.43;0.50;;;12.40;99.90;;;;;;6156955;23;20605;-48
2022/11/17 11:47:41;;;;;;;4.40;0.63;;;12.40;99.90;;;;;;6156575;23;20141;-49
2022/11/17 11:50:20;;;;;;;0.73;0.40;;;12.30;99.90;;;;;;6156466;23;20146;-51
2022/11/17 11:53:31;;;;;;;0.73;0.53;;;12.40;99.90;;;;;;6130392;23;20238;-49
2022/11/17 11:56:22;;;;;;;4.97;0.83;;;12.40;99.90;;;;;;6101661;23;20216;-49
2022/11/17 11:59:01;;;;;;;2.47;0.67;;;12.30;99.90;;;;;;6156418;23;20186;-50
2022/11/17 12:01:30;;;;;;;1.57;0.40;;;12.40;99.90;;;;;;6156787;23;20312;-51
2022/11/17 12:04:29;;;;;;;2.47;0.40;;;12.30;99.90;;;;;;6156976;23;20170;-49
2022/11/17 12:07:10;;;;;;;1.23;0.60;;;12.30;99.90;;;;;;6156900;23;20154;-49
2022/11/17 12:10:01;;;;;;;2.87;0.50;;;12.40;99.90;;;;;;6157059;23;20182;-50
2022/11/17 12:12:31;;;;;;;1.60;0.60;;;12.40;99.90;;;;;;6157617;23;20156;-51
2022/11/17 12:15:30;;;;;;;1.40;0.57;;;12.30;99.90;;;;;;6156396;23;20162;-49
2022/11/17 12:18:02;;;;;;;1.13;0.40;;;12.40;99.90;;;;;;6092696;23;20273;-49
2022/11/17 12:20:46;;;;;;;1.33;0.50;;;12.30;99.90;;;;;;6156412;23;20169;-49
2022/11/17 12:23:33;;;;;;;1.63;0.60;;;12.30;99.90;;;;;;6156125;23;20580;-51
2022/11/17 12:26:00;;;;;;;1.07;0.50;;;12.30;99.90;;;;;;6156384;23;20138;-48
2022/11/17 12:28:39;;;;;;;4.37;0.40;;;12.30;99.90;;;;;;6156084;23;20272;-50
2022/11/17 12:31:41;;;;;;;1.93;0.60;;;12.30;99.90;;;;;;6156133;23;20142;-49
2022/11/17 12:34:08;;;;;;;3.27;0.80;;;12.30;99.90;;;;;;6156446;23;20180;-50
2022/11/17 12:36:34;;;;;;;4.07;0.60;;;12.30;99.90;;;;;;6156033;23;20533;-50
2022/11/17 12:39:08;;;;;;;3.40;0.80;;;12.30;99.90;;;;;;6156170;23;20232;-49
2022/11/17 12:41:49;;;;;;;4.37;0.83;;;12.30;99.90;;;;;;6156331;23;20154;-48
2022/11/17 12:44:32;;;;;;;1.17;0.60;;;12.30;99.90;;;;;;6156118;23;20631;-50
2022/11/17 12:47:07;;;;;;;2.07;0.70;;;12.30;99.90;;;;;;6156040;23;20150;-50
2022/11/17 12:49:47;;;;;;;2.70;0.70;;;12.30;99.90;;;;;;6155970;23;20183;-49
2022/11/17 12:52:19;;;;;;;0.60;0.53;;;12.20;99.90;;;;;;6156018;23;20149;-49
2022/11/17 12:55:00;;;;;;;2.70;0.70;;;12.20;99.90;;;;;;6156531;23;20146;-50
2022/11/17 12:57:30;;;;;;;1.17;0.60;;;12.30;99.90;;;;;;6156192;23;20152;-50
2022/11/17 13:00:18;;;;;;;2.07;0.80;;;12.30;99.90;;;;;;6156244;23;20272;-49
2022/11/17 13:02:57;;;;;;;3.40;0.87;;;12.30;99.90;;;;;;6155906;23;20619;-49
2022/11/17 13:05:26;;;;;;;1.87;0.70;;;12.30;99.90;;;;;;6156219;23;20593;-49
2022/11/17 13:08:13;;;;;;;8.67;1.07;;;12.30;99.90;;;;;;6156082;23;20555;-49
2022/11/17 13:10:39;;;;;;;3.90;1.03;;;12.30;99.90;;;;;;6155803;23;20157;-49
2022/11/17 13:13:22;;;;;;;3.37;0.80;;;12.20;99.90;;;;;;6129688;23;20213;-50
2022/11/17 13:15:50;;;;;;;0.67;0.40;;;12.30;99.90;;;;;;6155890;23;20203;-49
2022/11/17 13:18:35;;;;;;;2.20;0.80;;;12.30;99.90;;;;;;6155915;23;20213;-49
2022/11/17 13:21:00;;;;;;;2.10;0.67;;;12.30;99.90;;;;;;6155958;23;20157;-49
2022/11/17 13:23:31;;;;;;;2.77;0.70;;;12.30;99.90;;;;;;6156205;23;20157;-48
2022/11/17 13:26:08;;;;;;;8.30;1.10;;;12.30;99.90;;;;;;6156189;23;20142;-49
2022/11/17 13:28:34;;;;;;;2.77;0.73;;;12.30;99.90;;;;;;6155710;23;20208;-49
2022/11/17 13:31:00;;;;;;;4.90;0.87;;;12.30;99.90;;;;;;6155826;23;20153;-49
2022/11/17 13:33:28;;;;;;;3.00;0.80;;;12.30;99.90;;;;;;6129697;23;20158;-49